Terminal Aerodrome Forecast
Issued by NWS

Home | Current Version | Previous Version | Text Only | Print | Product List | Glossary On
Versions: 1 2 3 4 5 6 7 8 9 10 11 12 13 14 15 16 17
000
FTUS42 KJAX 261100
TAFVQQ
TAF
KVQQ 261120Z 2612/2712 24002KT P6SM FEW025 BKN250
     FM261700 26008KT P6SM VCTS SCT040CB
     FM270100 22004KT P6SM SCT040 SCT080 BKN250=

USA.gov is the U.S. government's official web portal to all federal, state and local government web resources and services.